createdAt,value
2022-11-29T00:02:06.596Z,34.28
2022-11-29T00:04:33.587Z,32.69
2022-11-29T00:07:00.486Z,31.79
2022-11-29T00:09:28.652Z,33.60
2022-11-29T00:11:59.821Z,37.77
2022-11-29T00:14:27.539Z,39.25
2022-11-29T00:16:58.540Z,38.61
2022-11-29T00:19:25.404Z,40.00
2022-11-29T00:21:57.415Z,36.61
2022-11-29T00:24:24.601Z,35.17
2022-11-29T00:26:53.143Z,33.48
2022-11-29T00:29:20.823Z,32.59
2022-11-29T00:31:48.756Z,31.48
2022-11-29T00:34:18.360Z,28.96
2022-11-29T00:36:46.349Z,31.30
2022-11-29T00:39:13.533Z,33.57
2022-11-29T00:41:40.744Z,32.46
2022-11-29T00:44:19.681Z,33.67
2022-11-29T00:46:50.858Z,32.66
2022-11-29T00:49:18.303Z,33.46
2022-11-29T00:51:46.876Z,33.45
2022-11-29T00:54:14.129Z,34.12
2022-11-29T00:56:42.804Z,35.13
2022-11-29T00:59:13.758Z,34.53
2022-11-29T01:01:41.006Z,35.66
2022-11-29T01:04:08.084Z,35.04
2022-11-29T01:06:36.187Z,34.32
2022-11-29T01:09:04.227Z,35.71
2022-11-29T01:11:33.093Z,36.60
2022-11-29T01:14:02.242Z,33.83
2022-11-29T01:16:31.503Z,33.95
2022-11-29T01:18:58.277Z,30.12
2022-11-29T01:21:25.666Z,31.21
2022-11-29T01:23:54.570Z,30.50
2022-11-29T01:26:23.815Z,31.61
2022-11-29T01:28:52.618Z,31.82
2022-11-29T01:31:21.667Z,34.89
2022-11-29T01:33:53.146Z,35.95
2022-11-29T01:36:20.154Z,39.37
2022-11-29T01:38:47.087Z,38.74
2022-11-29T01:41:17.086Z,37.18
2022-11-29T01:43:59.935Z,35.63
2022-11-29T01:46:27.982Z,34.40
2022-11-29T01:49:01.743Z,33.45
2022-11-29T01:51:29.752Z,31.26
2022-11-29T01:53:57.818Z,28.70
2022-11-29T01:56:28.018Z,27.83
2022-11-29T01:58:56.378Z,28.64
2022-11-29T02:01:23.884Z,27.61
2022-11-29T02:03:53.636Z,27.96
2022-11-29T02:06:22.634Z,31.24
2022-11-29T02:08:49.992Z,32.48
2022-11-29T02:11:44.632Z,32.77
2022-11-29T02:16:58.145Z,32.75
2022-11-29T02:19:55.792Z,31.49
2022-11-29T02:22:30.098Z,28.25
2022-11-29T02:25:14.970Z,28.63
2022-11-29T02:28:06.569Z,30.36
2022-11-29T02:30:55.668Z,28.37
2022-11-29T02:33:59.764Z,26.82
2022-11-29T02:36:53.529Z,27.87
2022-11-29T02:39:46.287Z,26.25
2022-11-29T02:42:31.015Z,27.84
2022-11-29T02:45:11.503Z,27.73
2022-11-29T02:47:55.558Z,28.20
2022-11-29T02:50:38.969Z,27.52
2022-11-29T02:53:17.212Z,26.35
2022-11-29T02:55:55.798Z,27.61
2022-11-29T02:58:33.267Z,26.76
2022-11-29T03:01:11.518Z,27.02
2022-11-29T03:03:45.788Z,27.47
2022-11-29T03:06:24.532Z,27.35
2022-11-29T03:09:00.926Z,28.42
2022-11-29T03:11:34.537Z,26.98
2022-11-29T03:14:17.482Z,24.90
2022-11-29T03:16:51.628Z,25.34
2022-11-29T03:19:36.451Z,25.97
2022-11-29T03:22:17.629Z,25.03
2022-11-29T03:24:54.242Z,25.57
2022-11-29T03:27:29.066Z,24.44
2022-11-29T03:29:59.322Z,23.06
2022-11-29T03:32:33.113Z,21.68
2022-11-29T03:35:06.503Z,19.68
2022-11-29T03:37:47.664Z,20.82
2022-11-29T03:40:19.743Z,23.18
2022-11-29T03:42:53.018Z,21.42
2022-11-29T03:45:25.389Z,21.18
2022-11-29T03:48:01.046Z,20.19
2022-11-29T03:50:34.952Z,21.63
2022-11-29T03:53:15.198Z,20.46
2022-11-29T03:55:55.512Z,19.43
2022-11-29T03:58:47.647Z,18.75
2022-11-29T04:01:39.559Z,18.26
2022-11-29T04:04:24.375Z,18.85
2022-11-29T04:07:07.042Z,18.64
2022-11-29T04:10:06.375Z,18.05
2022-11-29T04:12:53.417Z,18.91
2022-11-29T04:15:57.942Z,18.90
2022-11-29T04:19:07.701Z,18.14
2022-11-29T04:21:55.202Z,18.26
2022-11-29T04:25:06.381Z,18.49
2022-11-29T04:27:59.533Z,18.46
2022-11-29T04:30:36.310Z,18.31
2022-11-29T04:33:38.083Z,17.32
2022-11-29T04:36:32.702Z,16.95
2022-11-29T04:42:35.502Z,17.83
2022-11-29T04:45:30.596Z,17.31
2022-11-29T04:48:16.632Z,17.55
2022-11-29T04:50:54.050Z,16.91
2022-11-29T04:53:47.855Z,17.52
2022-11-29T04:56:23.223Z,15.61
2022-11-29T04:58:58.291Z,16.85
2022-11-29T05:01:37.215Z,17.59
2022-11-29T05:04:21.520Z,19.82
2022-11-29T05:07:00.027Z,19.14
2022-11-29T05:09:36.755Z,20.62
2022-11-29T05:12:12.151Z,18.32
2022-11-29T05:14:55.424Z,17.42
2022-11-29T05:17:33.413Z,19.68
2022-11-29T05:20:13.169Z,20.33
2022-11-29T05:22:52.645Z,21.13
2022-11-29T05:25:44.848Z,20.20
2022-11-29T05:28:21.215Z,20.84
2022-11-29T05:31:09.921Z,18.79
2022-11-29T05:33:56.957Z,18.53
2022-11-29T05:36:33.135Z,17.99
2022-11-29T05:39:21.200Z,18.03
2022-11-29T05:42:05.212Z,19.09
2022-11-29T05:44:36.708Z,19.78
2022-11-29T05:47:07.724Z,20.32
2022-11-29T05:49:41.501Z,20.48
2022-11-29T05:52:25.044Z,19.65
2022-11-29T05:55:17.166Z,21.53
2022-11-29T05:57:54.269Z,20.64
2022-11-29T06:00:22.702Z,20.12
2022-11-29T06:02:59.001Z,18.85
2022-11-29T06:05:35.600Z,19.92
2022-11-29T06:08:08.262Z,20.30
2022-11-29T06:10:40.363Z,20.80
2022-11-29T06:13:21.390Z,21.15
2022-11-29T06:16:16.226Z,21.66
2022-11-29T06:19:21.730Z,25.44
2022-11-29T06:22:02.962Z,26.12
2022-11-29T06:24:46.250Z,27.35
2022-11-29T06:27:39.201Z,27.82
2022-11-29T06:30:11.057Z,27.71
2022-11-29T06:32:48.997Z,26.96
2022-11-29T06:35:35.971Z,29.16
2022-11-29T06:38:17.455Z,27.88
2022-11-29T06:40:50.534Z,27.90
2022-11-29T06:43:18.044Z,28.84
2022-11-29T06:45:50.587Z,29.19
2022-11-29T06:48:24.221Z,29.98
2022-11-29T06:51:00.316Z,30.07
2022-11-29T06:53:41.171Z,29.22
2022-11-29T06:59:54.370Z,29.10
2022-11-29T07:02:31.970Z,29.68
2022-11-29T07:05:15.884Z,29.74
2022-11-29T07:07:43.301Z,29.11
2022-11-29T07:10:17.903Z,28.45
2022-11-29T07:12:51.940Z,27.05
2022-11-29T07:15:22.162Z,24.65
2022-11-29T07:18:13.021Z,25.46
2022-11-29T07:20:51.890Z,26.26
2022-11-29T07:23:29.521Z,26.82
2022-11-29T07:26:10.991Z,25.59
2022-11-29T07:28:54.187Z,27.72
2022-11-29T07:31:33.062Z,28.19
2022-11-29T07:34:10.624Z,28.94
2022-11-29T07:36:45.271Z,29.26
2022-11-29T07:39:25.266Z,29.93
2022-11-29T07:42:06.053Z,29.33
2022-11-29T07:44:38.886Z,29.42
2022-11-29T07:47:06.031Z,29.36
2022-11-29T07:49:32.832Z,28.91
2022-11-29T07:52:02.343Z,29.25
2022-11-29T07:54:31.590Z,29.46
2022-11-29T07:57:00.933Z,29.57
2022-11-29T07:59:27.691Z,29.36
2022-11-29T08:01:56.384Z,29.05
2022-11-29T08:04:23.825Z,25.57
2022-11-29T08:06:51.143Z,24.88
2022-11-29T08:09:19.044Z,23.39
2022-11-29T08:11:45.954Z,24.48
2022-11-29T08:14:17.422Z,23.89
2022-11-29T08:16:44.777Z,23.43
2022-11-29T08:19:11.710Z,22.03
2022-11-29T08:21:38.506Z,22.86
2022-11-29T08:24:06.512Z,22.37
2022-11-29T08:26:34.009Z,24.41
2022-11-29T08:29:03.170Z,26.34
2022-11-29T08:31:31.360Z,26.41
2022-11-29T08:36:31.994Z,27.33
2022-11-29T08:39:05.953Z,26.91
2022-11-29T08:41:42.967Z,24.27
2022-11-29T08:46:39.237Z,23.36
2022-11-29T08:49:07.814Z,23.16
2022-11-29T08:51:35.156Z,23.67
2022-11-29T08:54:04.540Z,22.03
2022-11-29T08:59:06.795Z,23.56
2022-11-29T09:01:38.775Z,22.20
2022-11-29T09:04:11.615Z,20.87
2022-11-29T09:06:40.786Z,20.46
2022-11-29T09:09:08.313Z,19.66
2022-11-29T09:11:36.524Z,18.69
2022-11-29T09:14:05.993Z,17.28
2022-11-29T09:16:37.707Z,18.84
2022-11-29T09:19:07.830Z,19.37
2022-11-29T09:21:35.509Z,20.35
2022-11-29T09:24:07.419Z,18.10
2022-11-29T09:26:36.395Z,17.34
2022-11-29T09:29:05.977Z,19.43
2022-11-29T09:31:34.808Z,21.16
2022-11-29T09:34:03.515Z,21.25
2022-11-29T09:36:32.325Z,18.78
2022-11-29T09:39:00.885Z,18.15
2022-11-29T09:41:48.547Z,18.44
2022-11-29T09:44:29.815Z,17.87
2022-11-29T09:47:14.519Z,17.07
2022-11-29T09:50:02.745Z,16.21
2022-11-29T09:52:49.454Z,16.03
2022-11-29T09:55:45.286Z,16.73
2022-11-29T09:58:22.979Z,16.64
2022-11-29T10:00:54.129Z,20.48
2022-11-29T10:03:26.386Z,22.17
2022-11-29T10:05:59.179Z,20.95
2022-11-29T10:08:34.163Z,19.43
2022-11-29T10:11:24.373Z,20.54
2022-11-29T10:13:57.927Z,21.88
2022-11-29T10:16:34.730Z,21.52
2022-11-29T10:19:12.817Z,22.03
2022-11-29T10:21:43.685Z,22.05
2022-11-29T10:24:16.944Z,26.54
2022-11-29T10:26:44.135Z,28.50
2022-11-29T10:29:15.185Z,31.22
2022-11-29T10:31:44.274Z,28.59
2022-11-29T10:34:13.975Z,26.33
2022-11-29T10:36:44.399Z,21.76
2022-11-29T10:39:18.886Z,20.97
2022-11-29T10:41:46.335Z,21.52
2022-11-29T10:44:16.001Z,22.51
2022-11-29T10:46:42.982Z,22.33
2022-11-29T10:49:17.498Z,21.39
2022-11-29T10:51:45.721Z,20.28
2022-11-29T10:54:43.115Z,18.85
2022-11-29T10:57:15.355Z,18.02
2022-11-29T11:00:01.452Z,17.81
2022-11-29T11:02:28.847Z,19.08
2022-11-29T11:04:59.429Z,20.05
2022-11-29T11:07:31.942Z,20.54
2022-11-29T11:10:03.035Z,23.44
2022-11-29T11:12:32.633Z,23.10
2022-11-29T11:15:34.624Z,22.13
2022-11-29T11:18:03.718Z,21.89
2022-11-29T11:20:35.567Z,21.05
2022-11-29T11:23:20.797Z,21.65
2022-11-29T11:25:56.996Z,22.22
2022-11-29T11:28:27.212Z,21.94
2022-11-29T11:30:58.907Z,24.82
2022-11-29T11:33:28.421Z,23.38
2022-11-29T11:36:05.690Z,22.48
2022-11-29T11:38:33.167Z,21.67
2022-11-29T11:41:14.650Z,18.71
2022-11-29T11:43:42.309Z,18.34
2022-11-29T11:46:10.857Z,20.20
2022-11-29T11:48:41.156Z,22.10
2022-11-29T11:51:21.330Z,22.45
2022-11-29T11:53:52.558Z,21.77
2022-11-29T11:56:34.784Z,19.99
2022-11-29T11:59:04.191Z,19.51
2022-11-29T12:01:38.347Z,19.67
2022-11-29T12:04:12.982Z,19.31
2022-11-29T12:06:46.346Z,21.97
2022-11-29T12:09:25.075Z,20.29
2022-11-29T12:12:12.195Z,18.79
2022-11-29T12:14:53.355Z,17.80
2022-11-29T12:17:32.036Z,17.82
2022-11-29T12:20:20.119Z,17.69
2022-11-29T12:22:58.966Z,17.90
2022-11-29T12:25:30.725Z,18.94
2022-11-29T12:28:12.037Z,19.22
2022-11-29T12:30:52.004Z,18.52
2022-11-29T12:33:34.397Z,17.65
2022-11-29T12:36:33.308Z,18.03
2022-11-29T12:39:16.479Z,20.15
2022-11-29T12:41:54.002Z,21.45
2022-11-29T12:44:38.924Z,22.70
2022-11-29T12:50:08.193Z,22.79
2022-11-29T12:52:48.887Z,22.41
2022-11-29T12:55:26.000Z,23.49
2022-11-29T12:58:03.708Z,23.40
2022-11-29T13:00:47.362Z,24.20
2022-11-29T13:03:23.620Z,23.96
2022-11-29T13:06:12.745Z,23.49
2022-11-29T13:08:53.806Z,23.02
2022-11-29T13:11:26.933Z,22.46
2022-11-29T13:14:20.129Z,22.00
2022-11-29T13:17:02.300Z,20.56
2022-11-29T13:19:37.938Z,20.63
2022-11-29T13:22:23.063Z,20.97
2022-11-29T13:24:56.421Z,25.43
2022-11-29T13:27:31.941Z,26.28
2022-11-29T13:30:01.370Z,24.53
2022-11-29T13:32:36.055Z,24.71
2022-11-29T13:35:08.274Z,25.21
2022-11-29T13:37:43.820Z,25.65
2022-11-29T13:40:23.464Z,24.51
2022-11-29T13:43:01.121Z,22.93
2022-11-29T13:45:36.467Z,25.44
2022-11-29T13:48:27.824Z,24.62
2022-11-29T13:50:55.941Z,25.05
2022-11-29T13:53:45.249Z,24.47
2022-11-29T13:56:27.267Z,23.19
2022-11-29T13:59:01.115Z,24.43
2022-11-29T14:01:29.263Z,24.75
2022-11-29T14:04:07.216Z,26.67
2022-11-29T14:06:37.500Z,25.49
2022-11-29T14:09:29.549Z,24.75
2022-11-29T14:12:21.406Z,26.18
2022-11-29T14:14:53.933Z,24.54
2022-11-29T14:17:54.890Z,25.64
2022-11-29T14:20:53.946Z,23.32
2022-11-29T14:23:36.973Z,24.95
2022-11-29T14:26:29.766Z,23.28
2022-11-29T14:29:00.089Z,20.96
2022-11-29T14:31:50.597Z,22.71
2022-11-29T14:34:29.014Z,24.71
2022-11-29T14:37:04.387Z,27.42
2022-11-29T14:39:45.498Z,26.54
2022-11-29T14:42:16.758Z,25.59
2022-11-29T14:44:48.908Z,26.48
2022-11-29T14:47:25.333Z,31.08
2022-11-29T14:49:58.998Z,30.16
2022-11-29T14:52:34.665Z,29.38
2022-11-29T14:55:07.553Z,29.68
2022-11-29T14:57:55.041Z,27.93
2022-11-29T15:00:28.114Z,26.27
2022-11-29T15:02:58.841Z,28.47
2022-11-29T15:05:32.626Z,26.60
2022-11-29T15:08:08.584Z,26.81
2022-11-29T15:10:41.256Z,27.42
2022-11-29T15:13:12.229Z,25.47
2022-11-29T15:16:00.921Z,24.60
2022-11-29T15:18:53.919Z,26.07
2022-11-29T15:21:32.555Z,24.22
2022-11-29T15:24:05.482Z,25.85
2022-11-29T15:26:38.113Z,26.21
2022-11-29T15:29:22.822Z,24.70
2022-11-29T15:31:55.083Z,24.68
2022-11-29T15:34:30.754Z,24.83
2022-11-29T15:37:01.105Z,25.17
2022-11-29T15:39:32.509Z,26.19
2022-11-29T15:42:05.019Z,27.68
2022-11-29T15:44:32.103Z,29.72
2022-11-29T15:47:21.954Z,35.06
2022-11-29T15:49:49.172Z,32.06
2022-11-29T15:52:25.128Z,30.39
2022-11-29T15:54:59.078Z,29.79
2022-11-29T15:57:32.766Z,27.71
2022-11-29T16:00:02.281Z,30.68
2022-11-29T16:02:32.269Z,27.05
2022-11-29T16:05:03.244Z,28.65
2022-11-29T16:07:32.312Z,29.74
2022-11-29T16:10:07.418Z,31.70
2022-11-29T16:12:34.381Z,31.03
2022-11-29T16:15:03.081Z,29.19
2022-11-29T16:17:32.817Z,27.30
2022-11-29T16:20:24.115Z,26.74
2022-11-29T16:23:11.010Z,25.14
2022-11-29T16:25:53.692Z,23.75
2022-11-29T16:28:21.437Z,24.12
2022-11-29T16:30:49.951Z,22.97
2022-11-29T16:33:21.085Z,23.10
2022-11-29T16:35:51.439Z,22.78
2022-11-29T16:38:21.727Z,22.52
2022-11-29T16:41:31.091Z,23.64
2022-11-29T16:44:04.451Z,27.86
2022-11-29T16:46:37.733Z,27.87
2022-11-29T16:49:32.644Z,26.86
2022-11-29T16:52:00.135Z,26.21
2022-11-29T16:54:28.311Z,25.45
2022-11-29T16:56:57.380Z,33.18
2022-11-29T16:59:31.802Z,31.86
2022-11-29T17:02:00.107Z,31.04
2022-11-29T17:04:28.302Z,29.50
2022-11-29T17:06:57.366Z,29.68
2022-11-29T17:09:25.967Z,32.07
2022-11-29T17:12:00.109Z,31.33
2022-11-29T17:14:30.121Z,31.33
2022-11-29T17:17:01.981Z,30.39
2022-11-29T17:19:30.018Z,29.36
2022-11-29T17:21:59.293Z,27.27
2022-11-29T17:24:26.097Z,26.47
2022-11-29T17:26:54.212Z,27.79
2022-11-29T17:29:22.318Z,27.79
2022-11-29T17:31:51.601Z,30.45
2022-11-29T17:34:19.975Z,30.22
2022-11-29T17:36:50.984Z,30.42
2022-11-29T17:39:18.260Z,28.60
2022-11-29T17:41:47.558Z,27.72
2022-11-29T17:44:15.022Z,27.08
2022-11-29T17:46:44.719Z,28.52
2022-11-29T17:49:11.536Z,31.07
2022-11-29T17:51:57.458Z,30.74
2022-11-29T17:54:26.355Z,28.54
2022-11-29T17:56:54.645Z,29.20
2022-11-29T17:59:21.642Z,31.35
2022-11-29T18:01:52.471Z,31.25
2022-11-29T18:04:19.634Z,28.63
2022-11-29T18:06:47.038Z,27.82
2022-11-29T18:09:16.954Z,27.99
2022-11-29T18:11:49.994Z,25.34
2022-11-29T18:14:21.891Z,22.22
2022-11-29T18:16:52.313Z,23.21
2022-11-29T18:19:21.003Z,24.33
2022-11-29T18:21:48.799Z,26.99
2022-11-29T18:24:15.607Z,25.98
2022-11-29T18:26:42.589Z,27.02
2022-11-29T18:29:11.367Z,28.03
2022-11-29T18:31:42.390Z,30.30
2022-11-29T18:34:12.835Z,32.52
2022-11-29T18:36:41.747Z,33.01
2022-11-29T18:39:12.560Z,30.42
2022-11-29T18:41:43.355Z,27.32
2022-11-29T18:44:14.680Z,26.77
2022-11-29T18:46:43.089Z,25.86
2022-11-29T18:49:14.266Z,26.21
2022-11-29T18:51:45.265Z,24.12
2022-11-29T18:54:13.637Z,24.73
2022-11-29T18:56:41.195Z,26.30
2022-11-29T18:59:12.500Z,25.11
2022-11-29T19:01:41.643Z,23.63
2022-11-29T19:04:17.804Z,22.70
2022-11-29T19:06:48.577Z,21.90
2022-11-29T19:09:23.187Z,23.81
2022-11-29T19:11:52.888Z,22.75
2022-11-29T19:14:21.505Z,22.52
2022-11-29T19:16:50.648Z,23.95
2022-11-29T19:19:29.636Z,24.43
2022-11-29T19:22:09.455Z,22.28
2022-11-29T19:24:51.154Z,23.39
2022-11-29T19:27:26.195Z,24.46
2022-11-29T19:29:58.232Z,25.35
2022-11-29T19:32:31.768Z,22.28
2022-11-29T19:35:00.671Z,23.80
2022-11-29T19:37:32.987Z,24.55
2022-11-29T19:40:06.654Z,22.54
2022-11-29T19:42:39.400Z,21.68
2022-11-29T19:45:16.875Z,23.34
2022-11-29T19:47:54.934Z,22.09
2022-11-29T19:52:56.826Z,23.07
2022-11-29T19:55:29.881Z,21.39
2022-11-29T19:58:01.351Z,23.75
2022-11-29T20:00:28.544Z,23.19
2022-11-29T20:02:57.004Z,22.54
2022-11-29T20:05:26.239Z,22.46
2022-11-29T20:07:53.415Z,24.61
2022-11-29T20:10:20.385Z,28.77
2022-11-29T20:12:50.234Z,28.19
2022-11-29T20:15:17.608Z,26.52
2022-11-29T20:17:45.669Z,25.83
2022-11-29T20:20:13.887Z,25.46
2022-11-29T20:22:43.210Z,31.05
2022-11-29T20:25:14.490Z,28.79
2022-11-29T20:27:41.881Z,27.14
2022-11-29T20:30:13.290Z,26.79
2022-11-29T20:32:40.647Z,26.74
2022-11-29T20:35:13.382Z,26.20
2022-11-29T20:38:03.956Z,26.12
2022-11-29T20:40:38.799Z,26.02
2022-11-29T20:43:29.947Z,25.97
2022-11-29T20:53:33.081Z,27.25
2022-11-29T20:57:06.532Z,28.26
2022-11-29T21:00:30.581Z,28.84
2022-11-29T21:07:20.983Z,25.25
2022-11-29T21:13:03.010Z,27.23
2022-11-29T21:15:38.280Z,25.62
2022-11-29T21:25:41.155Z,28.01
2022-11-29T21:28:32.893Z,25.06
2022-11-29T21:31:13.923Z,27.03
2022-11-29T21:40:05.744Z,26.19
2022-11-29T21:42:59.516Z,29.70
2022-11-29T21:46:01.097Z,29.54
2022-11-29T21:48:42.600Z,26.65
2022-11-29T21:51:31.913Z,26.58
2022-11-29T21:54:05.816Z,28.34
2022-11-29T21:56:48.298Z,29.00
2022-11-29T21:59:22.499Z,25.40
2022-11-29T22:02:02.320Z,29.40
2022-11-29T22:04:32.998Z,27.56
2022-11-29T22:07:00.344Z,29.57
2022-11-29T22:09:31.908Z,30.45
2022-11-29T22:12:19.420Z,29.64
2022-11-29T22:14:52.521Z,31.31
2022-11-29T22:17:35.288Z,28.58
2022-11-29T22:20:11.123Z,30.24
2022-11-29T22:22:39.722Z,33.55
2022-11-29T22:25:15.114Z,35.13
2022-11-29T22:27:42.470Z,33.46
2022-11-29T22:30:19.012Z,32.70
2022-11-29T22:32:51.399Z,32.07
2022-11-29T22:35:20.864Z,32.64
2022-11-29T22:37:49.043Z,28.94
2022-11-29T22:40:19.466Z,29.33
2022-11-29T22:42:46.884Z,28.49
2022-11-29T22:45:17.773Z,27.85
2022-11-29T22:48:03.286Z,27.71
2022-11-29T22:50:30.654Z,30.95
2022-11-29T22:53:01.549Z,29.21
2022-11-29T22:55:29.370Z,28.22
2022-11-29T22:57:56.334Z,27.54
2022-11-29T23:00:24.211Z,27.44
2022-11-29T23:02:51.987Z,28.20
2022-11-29T23:05:27.209Z,27.59
2022-11-29T23:07:56.532Z,29.04
2022-11-29T23:10:26.192Z,28.21
2022-11-29T23:12:53.530Z,29.25
2022-11-29T23:15:20.732Z,28.06
2022-11-29T23:17:54.017Z,26.41
2022-11-29T23:20:26.409Z,28.82
2022-11-29T23:22:55.230Z,29.30
2022-11-29T23:25:23.723Z,30.25
2022-11-29T23:27:50.790Z,30.30
2022-11-29T23:30:18.382Z,28.54
2022-11-29T23:32:45.526Z,27.63
2022-11-29T23:35:13.889Z,26.80
2022-11-29T23:37:42.853Z,23.72
2022-11-29T23:40:11.896Z,23.99
2022-11-29T23:42:46.410Z,25.07
2022-11-29T23:45:15.822Z,27.42
2022-11-29T23:47:47.417Z,32.95
2022-11-29T23:50:22.246Z,43.95
2022-11-29T23:52:54.427Z,44.60
2022-11-29T23:55:30.527Z,43.58
